Time;durP1;ratioP1;P1;durP2;ratioP2;P2;SDS_P1;SDS_P2;PMS_P1;PMS_P2;Temp;Humidity;BMP_temperature;BMP_pressure;BME280_temperature;BME280_humidity;BME280_pressure;Samples;Min_cycle;Max_cycle;Signal;HPM_P1;HPM_P2
2022/08/22 00:00:45;;;;;;;3.10;1.30;;;26.20;43.20;;;;;;5150127;27;45380;-74
2022/08/22 00:03:19;;;;;;;4.72;1.45;;;26.20;43.20;;;;;;5147247;27;45304;-74
2022/08/22 00:05:50;;;;;;;1.42;1.08;;;26.20;43.30;;;;;;5149895;27;45419;-74
2022/08/22 00:08:22;;;;;;;1.40;1.30;;;26.20;43.20;;;;;;5129938;27;45658;-74
2022/08/22 00:10:59;;;;;;;1.30;1.20;;;26.20;43.40;;;;;;5128770;27;45321;-74
2022/08/22 00:13:35;;;;;;;1.60;1.50;;;26.10;43.10;;;;;;5149860;27;45277;-74
2022/08/22 00:16:06;;;;;;;1.60;1.50;;;26.10;43.30;;;;;;5149911;27;45225;-74
2022/08/22 00:18:37;;;;;;;1.52;1.23;;;26.10;43.80;;;;;;5149451;27;45455;-74
2022/08/22 00:21:06;;;;;;;1.50;1.40;;;26.10;43.30;;;;;;5149547;27;45239;-74
2022/08/22 00:23:38;;;;;;;1.58;1.48;;;26.10;43.30;;;;;;5149660;27;45144;-74
2022/08/22 00:26:08;;;;;;;1.80;1.40;;;26.10;43.40;;;;;;5149744;27;45387;-74
2022/08/22 00:28:38;;;;;;;1.85;1.40;;;26.10;43.40;;;;;;5142601;27;46345;-74
2022/08/22 00:31:10;;;;;;;1.40;1.30;;;26.10;43.40;;;;;;5158841;27;45300;-74
2022/08/22 00:33:41;;;;;;;1.50;1.40;;;26.10;43.30;;;;;;5170530;27;45137;-74
2022/08/22 00:36:13;;;;;;;1.50;1.40;;;26.00;43.30;;;;;;5170373;27;45473;-74
2022/08/22 00:38:45;;;;;;;2.05;1.30;;;26.00;43.40;;;;;;5170140;27;45435;-74
2022/08/22 00:41:24;;;;;;;1.77;1.27;;;26.00;43.40;;;;;;5170172;27;45169;-74
2022/08/22 00:44:23;;;;;;;1.50;1.40;;;26.00;43.40;;;;;;5170460;27;45334;-74
2022/08/22 00:47:28;;;;;;;1.60;1.02;;;26.00;43.40;;;;;;5170439;27;45140;-74
2022/08/22 00:50:20;;;;;;;1.40;1.30;;;26.00;43.40;;;;;;5148578;27;45471;-75
2022/08/22 00:53:19;;;;;;;2.03;1.50;;;26.00;43.40;;;;;;5169179;27;45230;-74
2022/08/22 00:56:00;;;;;;;1.45;1.35;;;26.00;43.40;;;;;;5120750;27;45277;-74
2022/08/22 00:58:45;;;;;;;1.30;1.20;;;25.90;43.40;;;;;;5170203;27;45410;-74
2022/08/22 01:01:12;;;;;;;1.30;1.20;;;25.90;43.50;;;;;;5169029;27;45707;-74
2022/08/22 01:04:03;;;;;;;2.13;1.40;;;25.90;43.50;;;;;;5169965;27;45185;-74
2022/08/22 01:06:36;;;;;;;1.08;1.08;;;25.90;43.70;;;;;;5165880;27;45323;-74
2022/08/22 01:09:06;;;;;;;2.05;1.48;;;25.80;43.60;;;;;;5149119;27;45355;-73
2022/08/22 01:12:03;;;;;;;1.33;1.20;;;25.80;43.60;;;;;;5148667;27;46394;-74
2022/08/22 01:14:37;;;;;;;1.55;1.30;;;25.80;43.50;;;;;;5148772;27;45181;-74
2022/08/22 01:17:22;;;;;;;1.40;1.30;;;25.80;43.60;;;;;;5148964;27;45195;-74
2022/08/22 01:20:29;;;;;;;1.13;1.10;;;25.80;43.60;;;;;;5148304;27;45164;-74
2022/08/22 01:23:47;;;;;;;1.30;1.20;;;25.70;43.60;;;;;;5148547;27;47244;-74
2022/08/22 01:26:48;;;;;;;1.17;1.10;;;25.70;43.70;;;;;;5085257;27;45287;-74
2022/08/22 01:29:53;;;;;;;1.30;1.20;;;25.70;43.60;;;;;;5160978;27;45211;-74
2022/08/22 01:32:54;;;;;;;1.42;1.33;;;25.70;43.70;;;;;;5091425;27;45222;-74
2022/08/22 01:35:39;;;;;;;1.60;1.27;;;25.70;43.70;;;;;;5126888;27;46647;-74
2022/08/22 01:38:26;;;;;;;1.63;1.27;;;25.60;43.70;;;;;;5127336;27;45352;-74
2022/08/22 01:41:29;;;;;;;1.70;1.58;;;25.60;43.70;;;;;;5127790;27;45368;-74
2022/08/22 01:44:19;;;;;;;2.30;1.20;;;25.60;43.80;;;;;;5127344;27;45534;-74
2022/08/22 01:46:51;;;;;;;1.70;1.30;;;25.60;43.80;;;;;;5127410;27;46297;-74
2022/08/22 01:49:21;;;;;;;2.38;1.35;;;25.60;43.80;;;;;;5127302;27;45208;-74
2022/08/22 01:51:51;;;;;;;1.25;1.20;;;25.50;43.80;;;;;;5127474;27;45314;-74
2022/08/22 01:54:26;;;;;;;1.55;1.45;;;25.50;43.80;;;;;;5127790;27;45142;-74
2022/08/22 01:56:59;;;;;;;1.50;1.40;;;25.50;43.90;;;;;;5127230;27;45215;-74
2022/08/22 01:59:31;;;;;;;1.45;1.35;;;25.50;44.00;;;;;;5127254;27;45308;-74
2022/08/22 02:01:59;;;;;;;1.38;1.27;;;25.50;43.90;;;;;;5127461;27;45393;-74
2022/08/22 02:04:32;;;;;;;2.08;1.38;;;25.50;43.90;;;;;;5127669;27;45239;-74
2022/08/22 02:07:02;;;;;;;3.92;1.50;;;25.50;44.00;;;;;;5135063;27;46707;-74
2022/08/22 02:09:35;;;;;;;1.23;1.10;;;25.40;43.90;;;;;;5147825;27;45591;-74
2022/08/22 02:12:14;;;;;;;1.40;1.30;;;25.40;43.90;;;;;;5149309;27;45291;-74
2022/08/22 02:14:43;;;;;;;1.30;1.20;;;25.40;43.90;;;;;;5151804;27;45441;-74
2022/08/22 02:17:14;;;;;;;1.35;1.25;;;25.40;44.00;;;;;;5151469;27;45424;-73
2022/08/22 02:19:47;;;;;;;1.33;1.20;;;25.40;44.00;;;;;;5150715;27;45121;-74
2022/08/22 02:22:28;;;;;;;0.85;0.85;;;25.30;44.00;;;;;;5151639;27;45209;-74
2022/08/22 02:25:00;;;;;;;1.63;1.30;;;25.30;44.00;;;;;;5151596;27;45270;-74
2022/08/22 02:27:33;;;;;;;1.80;1.40;;;25.30;44.10;;;;;;5151214;27;47659;-74
2022/08/22 02:30:04;;;;;;;1.10;1.10;;;25.30;44.10;;;;;;5164292;27;45229;-74
2022/08/22 02:32:35;;;;;;;1.55;1.25;;;25.30;44.00;;;;;;5151449;27;45299;-74
2022/08/22 02:35:06;;;;;;;1.98;1.20;;;25.20;44.10;;;;;;5151398;27;45184;-74
2022/08/22 02:37:37;;;;;;;1.40;1.30;;;25.20;44.10;;;;;;5150767;27;46398;-73
2022/08/22 02:40:08;;;;;;;1.52;1.42;;;25.10;44.10;;;;;;5151262;27;45337;-74
2022/08/22 02:42:37;;;;;;;1.48;1.30;;;25.10;44.10;;;;;;5151268;27;45185;-74
2022/08/22 02:45:21;;;;;;;1.60;1.50;;;25.10;44.20;;;;;;5151293;27;45318;-74
2022/08/22 02:47:51;;;;;;;1.30;1.20;;;25.10;44.20;;;;;;5150925;27;45436;-74
2022/08/22 02:50:21;;;;;;;1.10;1.10;;;25.10;44.20;;;;;;5150936;27;45316;-74
2022/08/22 02:52:58;;;;;;;1.42;1.10;;;25.10;44.20;;;;;;5151010;27;45322;-74
2022/08/22 02:55:34;;;;;;;1.45;1.35;;;25.10;44.20;;;;;;5151178;27;45470;-74
2022/08/22 02:58:03;;;;;;;1.95;1.30;;;25.10;44.20;;;;;;5150714;27;45544;-74
2022/08/22 03:00:42;;;;;;;1.52;1.42;;;25.00;44.30;;;;;;5150827;27;45265;-74
2022/08/22 03:03:16;;;;;;;1.35;1.25;;;25.00;44.20;;;;;;5151031;27;45258;-74
2022/08/22 03:05:51;;;;;;;1.20;1.10;;;25.00;44.30;;;;;;5150943;27;45192;-74
2022/08/22 03:08:28;;;;;;;1.73;1.20;;;25.00;44.30;;;;;;5130934;27;45474;-74
2022/08/22 03:11:01;;;;;;;1.27;1.17;;;25.00;45.00;;;;;;5150775;27;45241;-74
2022/08/22 03:13:36;;;;;;;1.50;1.35;;;24.90;44.40;;;;;;5150808;27;45221;-74
2022/08/22 03:16:06;;;;;;;1.33;1.20;;;24.90;44.50;;;;;;5150973;27;45397;-74
2022/08/22 03:18:43;;;;;;;2.03;1.23;;;24.90;44.40;;;;;;5150600;27;45475;-74
2022/08/22 03:21:13;;;;;;;1.60;1.20;;;24.90;44.50;;;;;;5150755;27;45155;-74
2022/08/22 03:23:43;;;;;;;1.33;1.23;;;24.90;44.60;;;;;;5149852;27;45316;-74
2022/08/22 03:26:13;;;;;;;1.48;1.38;;;24.80;44.50;;;;;;5150999;27;45105;-74
2022/08/22 03:28:43;;;;;;;1.40;1.30;;;24.80;44.50;;;;;;5143005;27;45223;-74
2022/08/22 03:31:12;;;;;;;1.58;1.30;;;24.90;44.50;;;;;;5161342;27;45190;-74
2022/08/22 03:33:39;;;;;;;1.40;1.30;;;24.80;44.60;;;;;;5171575;27;45320;-74
2022/08/22 03:36:10;;;;;;;1.60;1.50;;;24.80;44.60;;;;;;5171426;27;45502;-74
2022/08/22 03:39:03;;;;;;;2.00;1.20;;;24.80;44.60;;;;;;5171239;27;45617;-74
2022/08/22 03:41:53;;;;;;;1.58;1.33;;;24.80;44.60;;;;;;5171311;27;45182;-74
2022/08/22 03:44:38;;;;;;;1.42;1.33;;;24.80;44.60;;;;;;5171372;27;45309;-74
2022/08/22 03:47:28;;;;;;;1.30;1.20;;;24.70;44.50;;;;;;5171437;27;45285;-74
2022/08/22 03:50:18;;;;;;;1.25;1.15;;;24.70;44.70;;;;;;5129655;27;46376;-74
2022/08/22 03:53:09;;;;;;;1.58;1.48;;;24.70;44.70;;;;;;5170922;27;45307;-74
2022/08/22 03:55:49;;;;;;;1.10;1.10;;;24.70;44.80;;;;;;5171201;27;45132;-74
2022/08/22 03:58:44;;;;;;;2.08;1.30;;;24.70;45.30;;;;;;5171291;27;45446;-74
2022/08/22 04:01:23;;;;;;;1.13;1.10;;;24.70;44.70;;;;;;5152048;27;46436;-74
2022/08/22 04:04:24;;;;;;;1.63;1.40;;;24.60;44.70;;;;;;5170967;27;45142;-74
2022/08/22 04:07:32;;;;;;;1.58;1.48;;;24.60;44.80;;;;;;5163728;27;45446;-74
2022/08/22 04:10:35;;;;;;;1.40;1.30;;;24.60;44.70;;;;;;5112418;27;45503;-74
2022/08/22 04:13:19;;;;;;;1.95;1.38;;;24.60;44.80;;;;;;5149222;27;45327;-74
2022/08/22 04:16:02;;;;;;;3.15;1.38;;;24.60;44.80;;;;;;5149602;27;45399;-74
2022/08/22 04:18:49;;;;;;;1.30;1.20;;;24.60;44.80;;;;;;5149875;27;45197;-74
2022/08/22 04:21:41;;;;;;;1.25;1.15;;;24.50;44.70;;;;;;5131771;27;45504;-74
2022/08/22 04:24:32;;;;;;;1.45;1.20;;;24.50;44.80;;;;;;5149498;27;45591;-74
2022/08/22 04:27:02;;;;;;;1.50;1.40;;;24.50;45.50;;;;;;5148989;27;45351;-74
2022/08/22 04:29:33;;;;;;;1.55;1.30;;;24.50;44.90;;;;;;5162372;27;45244;-74
2022/08/22 04:32:03;;;;;;;1.42;1.23;;;24.50;44.80;;;;;;5149524;27;45442;-73
2022/08/22 04:34:38;;;;;;;1.17;1.17;;;24.50;44.70;;;;;;5148942;27;46744;-74
2022/08/22 04:37:08;;;;;;;2.00;1.20;;;24.50;44.80;;;;;;5148403;27;45274;-74
2022/08/22 04:39:38;;;;;;;1.48;1.38;;;24.50;44.80;;;;;;5149545;27;45165;-74
2022/08/22 04:42:07;;;;;;;1.40;1.30;;;24.50;44.90;;;;;;5149468;27;45506;-74
2022/08/22 04:44:38;;;;;;;1.35;1.25;;;24.50;44.80;;;;;;5149204;27;47650;-74
2022/08/22 04:47:08;;;;;;;1.23;1.13;;;24.40;44.70;;;;;;5149241;27;45354;-74
2022/08/22 04:49:40;;;;;;;1.58;1.48;;;24.40;44.90;;;;;;5149359;27;45145;-75
2022/08/22 04:52:33;;;;;;;1.55;1.27;;;24.50;44.90;;;;;;5149350;27;45265;-74
2022/08/22 04:55:06;;;;;;;1.40;1.30;;;24.40;44.80;;;;;;5148926;27;46409;-74
2022/08/22 04:57:36;;;;;;;1.55;1.45;;;24.50;44.90;;;;;;5149131;27;45209;-74
2022/08/22 05:00:07;;;;;;;1.60;1.35;;;24.40;44.70;;;;;;5149258;27;45332;-74
2022/08/22 05:02:35;;;;;;;1.48;1.38;;;24.40;44.80;;;;;;5149351;27;45517;-74
2022/08/22 05:05:04;;;;;;;1.50;1.40;;;24.40;44.90;;;;;;5148610;27;46471;-74
2022/08/22 05:07:33;;;;;;;1.00;1.00;;;24.40;44.80;;;;;;5136144;27;45180;-74
2022/08/22 05:10:02;;;;;;;2.83;1.27;;;24.40;44.90;;;;;;5128254;27;45291;-74
2022/08/22 05:12:32;;;;;;;1.30;1.20;;;24.40;44.80;;;;;;5128299;27;45232;-74
2022/08/22 05:15:01;;;;;;;1.17;1.10;;;24.30;44.90;;;;;;5148911;27;46478;-74
2022/08/22 05:17:30;;;;;;;1.40;1.30;;;24.30;44.90;;;;;;5148809;27;45305;-74
2022/08/22 05:19:58;;;;;;;1.30;1.17;;;24.30;44.80;;;;;;5148963;27;45148;-74
2022/08/22 05:22:27;;;;;;;2.83;1.60;;;24.30;44.90;;;;;;5146402;27;45240;-74
2022/08/22 05:24:56;;;;;;;1.20;1.10;;;24.30;45.00;;;;;;5148816;27;46383;-74
2022/08/22 05:27:25;;;;;;;1.40;1.20;;;24.30;45.00;;;;;;5148752;27;45176;-74
2022/08/22 05:29:55;;;;;;;1.88;1.30;;;24.30;44.90;;;;;;5140185;27;45332;-74
2022/08/22 05:32:23;;;;;;;1.20;1.10;;;24.30;44.90;;;;;;5169988;27;45188;-74
2022/08/22 05:34:52;;;;;;;1.45;1.35;;;24.30;45.00;;;;;;5169429;27;45311;-74
2022/08/22 05:37:21;;;;;;;1.60;1.50;;;24.20;45.00;;;;;;5169233;27;45301;-74
2022/08/22 05:39:49;;;;;;;1.73;1.42;;;24.20;45.00;;;;;;5169704;27;45179;-74
2022/08/22 05:42:20;;;;;;;1.50;1.40;;;24.20;45.10;;;;;;5169027;27;45290;-74
2022/08/22 05:44:47;;;;;;;1.83;1.50;;;24.20;45.00;;;;;;5168659;27;47709;-74
2022/08/22 05:47:20;;;;;;;1.48;1.38;;;24.20;45.00;;;;;;5170876;27;45202;-74
2022/08/22 05:49:49;;;;;;;1.30;1.20;;;24.20;45.10;;;;;;5172994;27;45178;-74
2022/08/22 05:52:43;;;;;;;1.65;1.30;;;24.20;45.00;;;;;;5173284;27;45391;-74
2022/08/22 05:55:17;;;;;;;1.38;1.27;;;24.20;45.10;;;;;;5172049;27;45476;-74
2022/08/22 05:57:48;;;;;;;1.77;1.45;;;24.20;45.00;;;;;;5172265;27;45110;-74
2022/08/22 06:00:18;;;;;;;1.98;1.38;;;24.20;45.00;;;;;;5172975;27;45324;-74
2022/08/22 06:02:52;;;;;;;1.50;1.40;;;24.20;45.00;;;;;;5173289;27;45321;-74
2022/08/22 06:05:22;;;;;;;1.50;1.40;;;24.20;45.00;;;;;;5172650;27;46680;-74
2022/08/22 06:07:50;;;;;;;1.35;1.25;;;24.20;45.00;;;;;;5157365;27;45246;-74
2022/08/22 06:10:19;;;;;;;1.50;1.30;;;24.20;45.00;;;;;;5151606;27;45227;-74
2022/08/22 06:12:51;;;;;;;1.40;1.27;;;24.20;45.10;;;;;;5152015;27;45349;-74
2022/08/22 06:15:21;;;;;;;1.60;1.50;;;24.20;45.00;;;;;;5151120;27;45558;-74
2022/08/22 06:17:49;;;;;;;1.33;1.23;;;24.20;45.00;;;;;;5151403;27;45402;-74
2022/08/22 06:20:18;;;;;;;1.77;1.38;;;24.20;45.00;;;;;;5151658;27;45145;-74
2022/08/22 06:22:49;;;;;;;1.42;1.33;;;24.20;45.10;;;;;;5151956;27;45183;-74
2022/08/22 06:25:19;;;;;;;2.47;1.67;;;24.20;45.00;;;;;;5151233;27;46741;-73
2022/08/22 06:27:46;;;;;;;1.67;1.58;;;24.30;45.10;;;;;;5149565;27;45314;-73
2022/08/22 06:30:14;;;;;;;4.45;1.63;;;24.30;45.30;;;;;;5164102;27;45310;-73
2022/08/22 06:32:44;;;;;;;2.15;1.45;;;24.30;45.40;;;;;;5151675;27;45194;-73
2022/08/22 06:35:13;;;;;;;2.45;2.00;;;24.20;45.70;;;;;;5151072;27;45345;-73
2022/08/22 06:37:41;;;;;;;2.17;1.73;;;24.20;45.80;;;;;;5150965;27;45292;-74
2022/08/22 06:40:09;;;;;;;3.45;1.67;;;24.20;45.70;;;;;;5151013;27;45256;-74
2022/08/22 06:42:39;;;;;;;3.40;1.80;;;24.30;45.90;;;;;;5151458;27;45503;-74
2022/08/22 06:45:08;;;;;;;1.95;1.70;;;24.30;46.80;;;;;;5151233;27;45243;-74
2022/08/22 06:47:37;;;;;;;2.05;1.40;;;24.20;46.30;;;;;;5151162;27;45270;-74
2022/08/22 06:50:06;;;;;;;2.13;1.83;;;24.30;46.50;;;;;;5150870;27;45261;-73
2022/08/22 06:52:45;;;;;;;2.85;1.70;;;24.20;46.50;;;;;;5151407;27;45122;-73
2022/08/22 06:55:12;;;;;;;2.00;1.63;;;24.30;46.50;;;;;;5150739;27;46715;-73
2022/08/22 06:57:44;;;;;;;3.47;1.70;;;24.30;46.50;;;;;;5150458;27;45331;-74
2022/08/22 07:00:13;;;;;;;1.60;1.35;;;24.30;46.50;;;;;;5150116;27;45403;-74
2022/08/22 07:02:41;;;;;;;4.95;1.77;;;24.30;46.50;;;;;;5150410;27;45513;-73
2022/08/22 07:05:09;;;;;;;2.17;1.70;;;24.30;46.40;;;;;;5150239;27;45319;-74
2022/08/22 07:07:35;;;;;;;2.40;1.70;;;24.30;46.80;;;;;;5148349;27;45431;-74
2022/08/22 07:10:02;;;;;;;2.00;1.67;;;24.30;46.80;;;;;;5150813;27;45310;-73
2022/08/22 07:12:31;;;;;;;2.42;1.70;;;24.30;46.70;;;;;;5151105;27;45309;-72
2022/08/22 07:15:01;;;;;;;3.13;1.80;;;24.30;46.70;;;;;;5150666;27;45209;-74
2022/08/22 07:17:30;;;;;;;3.22;1.77;;;24.30;46.70;;;;;;5150580;27;45279;-75
2022/08/22 07:19:59;;;;;;;4.45;1.83;;;24.30;46.80;;;;;;5150659;27;45179;-74
2022/08/22 07:22:29;;;;;;;3.30;1.92;;;24.30;46.80;;;;;;5151392;27;45344;-74
2022/08/22 07:24:58;;;;;;;1.67;1.50;;;24.30;46.90;;;;;;5150349;27;46665;-74
2022/08/22 07:27:36;;;;;;;2.88;1.45;;;24.30;47.00;;;;;;5150787;27;45190;-73
2022/08/22 07:30:06;;;;;;;2.45;1.90;;;24.30;47.30;;;;;;5143516;27;45332;-73
2022/08/22 07:32:40;;;;;;;4.13;2.40;;;24.30;47.30;;;;;;5171781;27;45228;-74
2022/08/22 07:35:09;;;;;;;2.67;1.90;;;24.30;47.40;;;;;;5171253;27;46617;-74
2022/08/22 07:37:52;;;;;;;3.22;2.05;;;24.40;47.50;;;;;;5170852;27;45306;-74
2022/08/22 07:40:22;;;;;;;1.75;1.58;;;24.30;47.50;;;;;;5171204;27;45136;-73
2022/08/22 07:42:51;;;;;;;3.22;1.70;;;24.30;47.50;;;;;;5171491;27;45393;-74
2022/08/22 07:45:21;;;;;;;3.90;1.73;;;24.30;47.50;;;;;;5171019;27;46650;-74
2022/08/22 07:48:01;;;;;;;2.20;1.63;;;24.30;47.80;;;;;;5170678;27;45376;-74
2022/08/22 07:50:33;;;;;;;4.65;2.20;;;24.30;47.80;;;;;;5171116;27;45125;-74
2022/08/22 07:53:05;;;;;;;4.95;1.73;;;24.30;47.80;;;;;;5171362;27;45336;-74
2022/08/22 07:55:31;;;;;;;2.80;1.90;;;24.30;47.90;;;;;;5170907;27;45545;-74
2022/08/22 07:58:00;;;;;;;4.20;1.90;;;24.40;47.70;;;;;;5171026;27;45297;-74
2022/08/22 08:00:28;;;;;;;6.47;1.95;;;24.30;47.40;;;;;;5170563;27;45303;-74
2022/08/22 08:02:57;;;;;;;3.45;1.92;;;24.40;47.60;;;;;;5171286;27;45174;-74
2022/08/22 08:05:24;;;;;;;2.35;1.60;;;24.30;47.60;;;;;;5171157;27;45465;-73
2022/08/22 08:07:52;;;;;;;4.72;1.90;;;24.40;47.80;;;;;;5155069;27;45266;-74
2022/08/22 08:10:19;;;;;;;3.53;1.80;;;24.40;47.80;;;;;;5149480;27;45157;-74
2022/08/22 08:12:47;;;;;;;2.15;1.80;;;24.40;47.60;;;;;;5149950;27;45243;-74
2022/08/22 08:15:16;;;;;;;4.18;1.90;;;24.40;47.60;;;;;;5148782;27;45310;-72
2022/08/22 08:17:45;;;;;;;2.22;1.77;;;24.40;47.60;;;;;;5149470;27;45172;-74
2022/08/22 08:20:13;;;;;;;5.53;2.10;;;24.40;47.50;;;;;;5150248;27;45297;-74
2022/08/22 08:22:40;;;;;;;3.80;2.05;;;24.50;47.80;;;;;;5148928;27;45391;-74
2022/08/22 08:25:07;;;;;;;2.85;1.92;;;24.50;47.70;;;;;;5149266;27;45475;-74
2022/08/22 08:30:24;;;;;;;4.35;2.20;;;24.50;47.70;;;;;;5145840;27;45368;-74
2022/08/22 08:32:54;;;;;;;2.03;1.67;;;24.50;47.50;;;;;;5170556;27;45309;-74
2022/08/22 08:35:22;;;;;;;3.53;2.17;;;24.50;47.50;;;;;;5170144;27;46615;-74
2022/08/22 08:37:50;;;;;;;3.05;2.15;;;24.50;47.60;;;;;;5169857;27;45405;-74
2022/08/22 08:40:28;;;;;;;2.00;1.80;;;24.50;47.60;;;;;;5170212;27;45278;-74
2022/08/22 08:46:15;;;;;;;4.00;1.67;;;24.50;47.40;;;;;;5167387;27;45847;-74
2022/08/22 08:49:05;;;;;;;2.92;1.70;;;24.60;47.50;;;;;;5133555;27;45248;-73
2022/08/22 08:51:53;;;;;;;2.45;1.95;;;24.60;47.50;;;;;;5166676;27;45308;-74
2022/08/22 08:54:33;;;;;;;2.08;1.50;;;24.70;47.50;;;;;;5170277;27;45249;-74
2022/08/22 08:57:04;;;;;;;3.03;1.60;;;24.70;47.50;;;;;;5169744;27;46737;-74
2022/08/22 08:59:39;;;;;;;2.50;1.63;;;24.80;47.50;;;;;;5169420;27;45274;-75
2022/08/22 09:02:31;;;;;;;3.83;1.85;;;24.80;47.60;;;;;;5170111;27;45377;-74
2022/08/22 09:05:33;;;;;;;2.00;1.80;;;24.80;47.60;;;;;;5170075;27;45402;-75
2022/08/22 09:08:30;;;;;;;2.20;1.67;;;24.80;47.50;;;;;;5116865;27;46655;-74
2022/08/22 09:11:05;;;;;;;4.65;2.30;;;24.80;47.40;;;;;;5148214;27;45393;-74
2022/08/22 09:13:40;;;;;;;2.17;1.70;;;24.90;47.50;;;;;;5148934;27;45292;-74
2022/08/22 09:16:16;;;;;;;2.28;1.63;;;24.90;47.30;;;;;;5148960;27;45496;-74
2022/08/22 09:19:18;;;;;;;2.28;1.75;;;24.90;47.60;;;;;;5148487;27;46674;-75
2022/08/22 09:22:06;;;;;;;3.90;2.00;;;24.90;47.70;;;;;;5146010;27;45312;-74
2022/08/22 09:25:08;;;;;;;2.92;1.60;;;25.00;47.60;;;;;;5152388;27;45326;-74
2022/08/22 09:27:36;;;;;;;4.22;2.30;;;25.00;47.50;;;;;;5152418;27;45110;-73
2022/08/22 09:30:05;;;;;;;4.78;1.98;;;25.00;47.20;;;;;;5164138;27;48356;-74
2022/08/22 09:32:41;;;;;;;7.38;2.20;;;25.00;47.40;;;;;;5152030;27;45290;-75
2022/08/22 09:35:11;;;;;;;5.07;2.15;;;25.10;47.20;;;;;;5152157;27;45264;-74
2022/08/22 09:37:45;;;;;;;3.47;2.00;;;25.20;47.20;;;;;;5152119;27;45368;-74
2022/08/22 09:40:15;;;;;;;2.53;1.95;;;25.30;47.00;;;;;;5151460;27;46473;-75
2022/08/22 09:42:45;;;;;;;4.25;1.80;;;25.40;47.00;;;;;;5151919;27;45293;-74
2022/08/22 09:45:47;;;;;;;6.30;2.30;;;25.40;46.90;;;;;;5152017;27;45266;-74
2022/08/22 09:48:59;;;;;;;5.25;1.90;;;25.40;46.60;;;;;;5136991;27;45468;-74
2022/08/22 09:51:33;;;;;;;3.75;2.28;;;25.50;46.50;;;;;;5064418;28;46393;-75
2022/08/22 09:54:18;;;;;;;1.92;1.50;;;25.60;46.20;;;;;;5144377;27;45484;-74
2022/08/22 09:56:57;;;;;;;2.72;1.70;;;25.60;45.90;;;;;;5152066;27;45259;-74
2022/08/22 09:59:30;;;;;;;4.50;2.35;;;25.60;46.10;;;;;;5151978;27;45199;-74
2022/08/22 10:01:59;;;;;;;5.20;1.98;;;25.70;45.90;;;;;;5150939;27;47644;-74
2022/08/22 10:04:41;;;;;;;5.20;2.10;;;25.80;45.60;;;;;;5151603;27;45126;-75
2022/08/22 10:07:24;;;;;;;3.15;1.90;;;25.80;44.50;;;;;;5151856;27;45181;-75
2022/08/22 10:09:56;;;;;;;3.35;2.00;;;25.80;44.80;;;;;;5151511;27;45405;-74
2022/08/22 10:12:26;;;;;;;2.42;1.75;;;25.90;44.10;;;;;;5151362;27;47293;-74
2022/08/22 10:15:02;;;;;;;2.47;2.00;;;25.80;43.20;;;;;;5151150;27;45240;-74
2022/08/22 10:17:31;;;;;;;3.38;1.92;;;25.90;43.50;;;;;;5151528;27;45187;-74
2022/08/22 10:20:00;;;;;;;3.85;2.10;;;25.80;42.50;;;;;;5151293;27;45459;-74
2022/08/22 10:22:32;;;;;;;2.97;1.90;;;25.90;43.10;;;;;;5151179;27;46408;-74
2022/08/22 10:25:19;;;;;;;4.97;2.22;;;26.00;43.30;;;;;;5151263;27;45311;-74
2022/08/22 10:27:54;;;;;;;2.97;2.10;;;26.00;43.90;;;;;;5151277;27;45355;-74
2022/08/22 10:30:22;;;;;;;3.05;1.88;;;26.20;43.90;;;;;;5147593;27;45370;-74
2022/08/22 10:32:51;;;;;;;2.78;1.90;;;26.20;43.80;;;;;;5171991;27;45236;-75
2022/08/22 10:35:21;;;;;;;3.25;1.83;;;26.30;43.90;;;;;;5172340;27;45302;-75
2022/08/22 10:37:52;;;;;;;3.28;2.05;;;26.30;44.00;;;;;;5171958;27;45258;-75
2022/08/22 10:40:24;;;;;;;4.53;1.83;;;26.40;43.70;;;;;;5172371;27;45230;-74
2022/08/22 10:42:52;;;;;;;4.03;1.80;;;26.50;43.80;;;;;;5171887;27;45462;-74
2022/08/22 10:45:26;;;;;;;3.55;1.80;;;26.50;43.60;;;;;;5171316;27;45300;-75
2022/08/22 10:48:28;;;;;;;2.25;1.90;;;26.50;43.50;;;;;;5171404;27;45361;-75
2022/08/22 10:50:58;;;;;;;4.15;1.80;;;26.60;43.50;;;;;;5171965;27;45412;-75
2022/08/22 10:53:32;;;;;;;3.63;1.80;;;26.60;43.40;;;;;;5171798;27;46447;-75
2022/08/22 10:56:06;;;;;;;3.28;2.00;;;26.70;43.30;;;;;;5171872;27;45248;-75
2022/08/22 10:58:34;;;;;;;2.63;1.85;;;26.80;43.10;;;;;;5171646;27;45292;-74
2022/08/22 11:01:02;;;;;;;1.85;1.52;;;26.80;43.00;;;;;;5172018;27;45405;-75
2022/08/22 11:03:34;;;;;;;5.07;1.85;;;26.90;43.20;;;;;;5170838;27;45459;-74
2022/08/22 11:06:03;;;;;;;2.60;1.80;;;27.00;43.00;;;;;;5170773;27;45262;-74
2022/08/22 11:08:33;;;;;;;4.40;2.10;;;27.00;42.90;;;;;;5130044;27;45124;-74
2022/08/22 11:11:22;;;;;;;2.38;1.73;;;27.10;42.70;;;;;;5129763;27;45248;-74
2022/08/22 11:14:01;;;;;;;3.30;1.90;;;27.20;43.10;;;;;;5118189;27;45733;-75
2022/08/22 11:16:36;;;;;;;3.30;1.80;;;27.30;42.90;;;;;;5129019;27;45291;-75
2022/08/22 11:19:22;;;;;;;3.45;1.85;;;27.30;42.80;;;;;;5129209;27;45481;-75
2022/08/22 11:21:56;;;;;;;5.10;1.95;;;27.40;42.60;;;;;;5129911;27;45335;-75
2022/08/22 11:24:49;;;;;;;3.13;2.15;;;27.50;42.40;;;;;;5129557;27;46671;-75
2022/08/22 11:27:21;;;;;;;5.25;2.10;;;27.60;42.00;;;;;;5129284;27;45171;-75
2022/08/22 11:29:49;;;;;;;3.25;1.90;;;27.70;41.40;;;;;;5159318;27;45240;-75
2022/08/22 11:32:18;;;;;;;3.97;1.70;;;27.70;41.10;;;;;;5150535;27;45129;-74
2022/08/22 11:34:51;;;;;;;2.22;1.73;;;27.70;41.00;;;;;;5150065;27;45247;-74
2022/08/22 11:37:22;;;;;;;3.42;2.08;;;27.60;40.60;;;;;;5149872;27;45189;-74
2022/08/22 11:39:57;;;;;;;5.00;2.20;;;27.70;40.50;;;;;;5149323;27;45112;-75
2022/08/22 11:42:28;;;;;;;2.33;1.85;;;27.80;40.60;;;;;;5149901;27;45126;-75
2022/08/22 11:44:56;;;;;;;3.08;2.00;;;27.90;40.30;;;;;;5148600;27;46863;-74
2022/08/22 11:47:24;;;;;;;1.75;1.65;;;28.00;40.10;;;;;;5149818;27;45235;-75
2022/08/22 11:49:56;;;;;;;4.45;2.00;;;28.00;39.80;;;;;;5150114;27;45145;-75
2022/08/22 11:52:50;;;;;;;2.10;1.63;;;28.00;39.50;;;;;;5151409;27;45374;-74
2022/08/22 11:55:20;;;;;;;3.45;2.00;;;28.10;39.30;;;;;;5145587;27;46534;-74
2022/08/22 11:57:48;;;;;;;3.17;1.83;;;28.10;39.60;;;;;;5149864;27;45240;-74
2022/08/22 12:00:23;;;;;;;2.13;1.90;;;28.20;39.40;;;;;;5149738;27;45307;-75
2022/08/22 12:03:19;;;;;;;3.22;1.70;;;28.20;39.10;;;;;;5150022;27;45248;-75
2022/08/22 12:05:48;;;;;;;2.83;2.00;;;28.20;39.20;;;;;;5094811;27;45730;-75
2022/08/22 12:08:16;;;;;;;2.53;1.90;;;28.40;39.90;;;;;;5129891;27;45130;-75
2022/08/22 12:10:45;;;;;;;3.22;1.92;;;28.50;39.70;;;;;;5128737;27;45246;-76
2022/08/22 12:13:16;;;;;;;2.83;1.90;;;28.60;38.70;;;;;;5129213;27;45258;-75
2022/08/22 12:15:46;;;;;;;3.22;1.90;;;28.60;38.70;;;;;;5128675;27;47565;-75
2022/08/22 12:18:43;;;;;;;3.55;1.85;;;28.70;38.40;;;;;;5126163;27;45272;-75
2022/08/22 12:21:27;;;;;;;2.60;2.05;;;28.80;38.30;;;;;;5121602;27;45151;-75
2022/08/22 12:24:23;;;;;;;2.80;1.73;;;28.90;38.00;;;;;;5128033;27;45416;-75
2022/08/22 12:27:06;;;;;;;2.97;1.80;;;29.00;38.20;;;;;;5128561;27;45195;-75
2022/08/22 12:29:44;;;;;;;2.38;2.03;;;29.00;37.70;;;;;;5137493;27;45347;-75
2022/08/22 12:32:39;;;;;;;2.60;1.98;;;29.00;37.80;;;;;;5170243;27;45177;-76
2022/08/22 12:35:15;;;;;;;2.88;1.80;;;29.10;38.70;;;;;;5170740;27;45165;-76
2022/08/22 12:37:45;;;;;;;2.53;1.80;;;29.20;37.20;;;;;;5169740;27;46717;-75
2022/08/22 12:40:20;;;;;;;2.88;1.98;;;29.20;37.50;;;;;;5170148;27;45323;-75
2022/08/22 12:42:53;;;;;;;2.50;2.00;;;29.30;37.20;;;;;;5170545;27;45297;-76
2022/08/22 12:45:43;;;;;;;3.08;1.80;;;29.30;37.40;;;;;;5170417;27;45269;-75
2022/08/22 12:48:17;;;;;;;3.05;2.00;;;29.40;37.20;;;;;;5170056;27;45203;-75
2022/08/22 12:50:48;;;;;;;2.65;1.80;;;29.40;36.80;;;;;;5169708;27;45236;-75
2022/08/22 12:53:34;;;;;;;3.70;1.90;;;29.40;36.70;;;;;;5170304;27;45391;-75
2022/08/22 12:56:07;;;;;;;2.08;1.50;;;29.50;36.30;;;;;;5151330;27;45268;-75
2022/08/22 12:58:45;;;;;;;2.10;1.80;;;29.60;37.40;;;;;;5169188;27;45307;-75
2022/08/22 13:01:14;;;;;;;3.92;2.08;;;29.60;36.40;;;;;;5169592;27;45312;-75
2022/08/22 13:03:43;;;;;;;2.05;1.80;;;29.70;36.40;;;;;;5169901;27;45156;-75
2022/08/22 13:06:42;;;;;;;3.97;2.20;;;29.80;35.80;;;;;;5169976;27;45340;-75
2022/08/22 13:09:14;;;;;;;2.92;1.73;;;29.70;36.00;;;;;;5169498;27;46696;-74
2022/08/22 13:11:41;;;;;;;4.03;1.98;;;29.80;36.20;;;;;;5169417;27;45392;-75
2022/08/22 13:14:09;;;;;;;3.03;1.70;;;29.90;35.90;;;;;;5169399;27;45328;-75
2022/08/22 13:16:47;;;;;;;2.88;2.03;;;29.90;35.30;;;;;;5169945;27;45188;-75
2022/08/22 13:19:18;;;;;;;3.85;1.90;;;29.90;35.50;;;;;;5169652;27;45417;-76
2022/08/22 13:21:46;;;;;;;2.53;1.70;;;30.00;35.80;;;;;;5169621;27;45129;-75
2022/08/22 13:24:14;;;;;;;2.80;1.98;;;30.00;35.90;;;;;;5169679;27;45272;-75
2022/08/22 13:26:46;;;;;;;2.00;1.75;;;30.10;35.60;;;;;;5169968;27;45236;-75
2022/08/22 13:29:16;;;;;;;2.22;1.80;;;30.00;36.20;;;;;;5157435;27;45448;-75
2022/08/22 13:31:44;;;;;;;2.50;2.10;;;30.00;35.60;;;;;;5169003;27;45319;-75
2022/08/22 13:34:27;;;;;;;2.60;2.03;;;29.90;35.80;;;;;;5169611;27;45102;-75
2022/08/22 13:36:57;;;;;;;6.15;2.13;;;29.90;35.90;;;;;;5169387;27;45382;-75